sensor_id;sensor_type;location;lat;lon;timestamp;temperature;humidity
19646;DHT22;9971;52.446;13.452;2023-11-22T00:02:11;19.30;57.30
19646;DHT22;9971;52.446;13.452;2023-11-22T00:07:15;14.60;61.10
19646;DHT22;9971;52.446;13.452;2023-11-22T00:12:18;10.20;73.90
19646;DHT22;9971;52.446;13.452;2023-11-22T00:17:20;8.00;84.30
19646;DHT22;9971;52.446;13.452;2023-11-22T00:22:27;6.70;91.80
19646;DHT22;9971;52.446;13.452;2023-11-22T00:27:30;5.50;98.10
19646;DHT22;9971;52.446;13.452;2023-11-22T00:32:34;5.00;99.90
19646;DHT22;9971;52.446;13.452;2023-11-22T00:37:36;4.90;99.90
19646;DHT22;9971;52.446;13.452;2023-11-22T00:42:39;4.70;99.90
19646;DHT22;9971;52.446;13.452;2023-11-22T00:47:43;4.70;99.90
19646;DHT22;9971;52.446;13.452;2023-11-22T00:52:47;4.60;99.90
19646;DHT22;9971;52.446;13.452;2023-11-22T00:57:48;4.60;99.90
19646;DHT22;9971;52.446;13.452;2023-11-22T01:02:52;4.60;99.90
19646;DHT22;9971;52.446;13.452;2023-11-22T01:08:01;4.60;99.90
19646;DHT22;9971;52.446;13.452;2023-11-22T01:13:07;4.60;99.90
19646;DHT22;9971;52.446;13.452;2023-11-22T01:18:11;4.50;99.90
19646;DHT22;9971;52.446;13.452;2023-11-22T01:23:14;4.50;99.90
19646;DHT22;9971;52.446;13.452;2023-11-22T01:28:16;4.40;99.90
19646;DHT22;9971;52.446;13.452;2023-11-22T01:33:20;4.30;99.90
19646;DHT22;9971;52.446;13.452;2023-11-22T01:38:23;4.30;99.90
19646;DHT22;9971;52.446;13.452;2023-11-22T01:43:30;4.20;99.90
19646;DHT22;9971;52.446;13.452;2023-11-22T01:48:33;4.10;99.90
19646;DHT22;9971;52.446;13.452;2023-11-22T01:53:35;4.00;99.90
19646;DHT22;9971;52.446;13.452;2023-11-22T01:58:37;3.90;99.90
19646;DHT22;9971;52.446;13.452;2023-11-22T02:03:40;3.80;99.90
19646;DHT22;9971;52.446;13.452;2023-11-22T02:08:42;3.70;99.90
19646;DHT22;9971;52.446;13.452;2023-11-22T02:13:44;3.70;99.90
19646;DHT22;9971;52.446;13.452;2023-11-22T02:18:48;3.60;99.90
19646;DHT22;9971;52.446;13.452;2023-11-22T02:23:49;3.60;99.90
19646;DHT22;9971;52.446;13.452;2023-11-22T02:28:52;3.50;99.90
19646;DHT22;9971;52.446;13.452;2023-11-22T02:33:54;3.50;99.90
19646;DHT22;9971;52.446;13.452;2023-11-22T02:38:56;3.40;99.90
19646;DHT22;9971;52.446;13.452;2023-11-22T02:43:58;3.40;99.90
19646;DHT22;9971;52.446;13.452;2023-11-22T02:49:01;3.40;99.90
19646;DHT22;9971;52.446;13.452;2023-11-22T02:54:03;3.30;99.90
19646;DHT22;9971;52.446;13.452;2023-11-22T02:59:06;3.20;99.90
19646;DHT22;9971;52.446;13.452;2023-11-22T03:04:08;3.20;99.90
19646;DHT22;9971;52.446;13.452;2023-11-22T03:09:11;3.10;99.90
19646;DHT22;9971;52.446;13.452;2023-11-22T03:14:13;3.10;99.90
19646;DHT22;9971;52.446;13.452;2023-11-22T03:19:15;3.00;99.90
19646;DHT22;9971;52.446;13.452;2023-11-22T03:24:17;3.00;99.90
19646;DHT22;9971;52.446;13.452;2023-11-22T03:29:21;3.00;99.90
19646;DHT22;9971;52.446;13.452;2023-11-22T03:34:23;3.00;99.90
19646;DHT22;9971;52.446;13.452;2023-11-22T03:39:27;2.90;99.90
19646;DHT22;9971;52.446;13.452;2023-11-22T03:44:31;2.80;99.90
19646;DHT22;9971;52.446;13.452;2023-11-22T03:49:35;2.80;99.90
19646;DHT22;9971;52.446;13.452;2023-11-22T03:54:38;2.80;99.90
19646;DHT22;9971;52.446;13.452;2023-11-22T03:59:40;2.80;99.90
19646;DHT22;9971;52.446;13.452;2023-11-22T04:04:43;2.70;99.90
19646;DHT22;9971;52.446;13.452;2023-11-22T04:09:46;2.70;99.90
19646;DHT22;9971;52.446;13.452;2023-11-22T04:14:48;2.70;99.90
19646;DHT22;9971;52.446;13.452;2023-11-22T04:19:51;2.60;99.90
19646;DHT22;9971;52.446;13.452;2023-11-22T04:24:54;2.60;99.90
19646;DHT22;9971;52.446;13.452;2023-11-22T04:29:56;2.60;99.90
19646;DHT22;9971;52.446;13.452;2023-11-22T04:34:59;2.60;99.90
19646;DHT22;9971;52.446;13.452;2023-11-22T04:40:03;2.50;99.90
19646;DHT22;9971;52.446;13.452;2023-11-22T04:45:07;2.50;99.90
19646;DHT22;9971;52.446;13.452;2023-11-22T04:50:11;2.50;99.90
19646;DHT22;9971;52.446;13.452;2023-11-22T04:55:15;2.50;99.90
19646;DHT22;9971;52.446;13.452;2023-11-22T05:00:17;2.50;99.90
19646;DHT22;9971;52.446;13.452;2023-11-22T05:05:20;2.40;99.90
19646;DHT22;9971;52.446;13.452;2023-11-22T05:10:23;2.40;99.90
19646;DHT22;9971;52.446;13.452;2023-11-22T05:15:26;2.40;99.90
19646;DHT22;9971;52.446;13.452;2023-11-22T05:20:33;2.40;99.90
19646;DHT22;9971;52.446;13.452;2023-11-22T05:25:44;2.40;99.90
19646;DHT22;9971;52.446;13.452;2023-11-22T05:30:52;2.40;99.90
19646;DHT22;9971;52.446;13.452;2023-11-22T05:35:58;2.40;99.90
19646;DHT22;9971;52.446;13.452;2023-11-22T05:41:02;2.30;99.90
19646;DHT22;9971;52.446;13.452;2023-11-22T05:46:06;2.30;99.90
19646;DHT22;9971;52.446;13.452;2023-11-22T05:51:10;2.30;99.90
19646;DHT22;9971;52.446;13.452;2023-11-22T05:56:16;2.30;99.90
19646;DHT22;9971;52.446;13.452;2023-11-22T06:01:22;2.30;99.90
19646;DHT22;9971;52.446;13.452;2023-11-22T06:06:25;2.30;99.90
19646;DHT22;9971;52.446;13.452;2023-11-22T06:11:30;2.20;99.90
19646;DHT22;9971;52.446;13.452;2023-11-22T06:16:35;2.30;99.90
19646;DHT22;9971;52.446;13.452;2023-11-22T06:21:38;2.30;99.90
19646;DHT22;9971;52.446;13.452;2023-11-22T06:26:42;2.30;99.90
19646;DHT22;9971;52.446;13.452;2023-11-22T06:31:46;2.30;99.90
19646;DHT22;9971;52.446;13.452;2023-11-22T06:36:52;2.20;99.90
19646;DHT22;9971;52.446;13.452;2023-11-22T06:41:55;2.20;99.90
19646;DHT22;9971;52.446;13.452;2023-11-22T08:34:15;3.20;99.90
19646;DHT22;9971;52.446;13.452;2023-11-22T08:39:24;3.30;99.90
19646;DHT22;9971;52.446;13.452;2023-11-22T08:44:28;3.40;99.90
19646;DHT22;9971;52.446;13.452;2023-11-22T08:49:30;3.40;99.90
19646;DHT22;9971;52.446;13.452;2023-11-22T08:54:33;3.50;99.90
19646;DHT22;9971;52.446;13.452;2023-11-22T08:59:38;3.50;99.90
19646;DHT22;9971;52.446;13.452;2023-11-22T09:04:41;3.60;99.90
19646;DHT22;9971;52.446;13.452;2023-11-22T09:09:51;3.70;99.90
19646;DHT22;9971;52.446;13.452;2023-11-22T09:14:55;3.80;99.90
19646;DHT22;9971;52.446;13.452;2023-11-22T09:36:11;4.00;99.90
19646;DHT22;9971;52.446;13.452;2023-11-22T09:41:21;4.10;99.90
19646;DHT22;9971;52.446;13.452;2023-11-22T10:02:40;4.80;99.90
19646;DHT22;9971;52.446;13.452;2023-11-22T10:07:42;5.00;99.90
19646;DHT22;9971;52.446;13.452;2023-11-22T10:12:46;5.10;99.90
19646;DHT22;9971;52.446;13.452;2023-11-22T10:18:03;5.20;99.90
19646;DHT22;9971;52.446;13.452;2023-11-22T10:23:08;5.40;99.90
19646;DHT22;9971;52.446;13.452;2023-11-22T10:28:15;5.60;99.90
19646;DHT22;9971;52.446;13.452;2023-11-22T10:33:18;5.60;99.90
19646;DHT22;9971;52.446;13.452;2023-11-22T10:38:20;5.70;99.90
19646;DHT22;9971;52.446;13.452;2023-11-22T10:43:22;5.70;99.90
19646;DHT22;9971;52.446;13.452;2023-11-22T10:48:26;5.80;99.90
19646;DHT22;9971;52.446;13.452;2023-11-22T10:53:35;6.00;99.90
19646;DHT22;9971;52.446;13.452;2023-11-22T10:58:49;6.20;99.90
19646;DHT22;9971;52.446;13.452;2023-11-22T11:03:46;6.30;99.90
19646;DHT22;9971;52.446;13.452;2023-11-22T11:08:48;6.50;99.90
19646;DHT22;9971;52.446;13.452;2023-11-22T11:13:52;6.70;99.90
19646;DHT22;9971;52.446;13.452;2023-11-22T11:19:00;6.80;99.90
19646;DHT22;9971;52.446;13.452;2023-11-22T11:46:36;7.40;99.90
19646;DHT22;9971;52.446;13.452;2023-11-22T11:50:53;7.30;99.90
19646;DHT22;9971;52.446;13.452;2023-11-22T11:56:01;7.50;99.90
19646;DHT22;9971;52.446;13.452;2023-11-22T12:01:04;7.80;99.90
19646;DHT22;9971;52.446;13.452;2023-11-22T12:06:16;8.10;99.90
19646;DHT22;9971;52.446;13.452;2023-11-22T12:11:18;8.20;99.90
19646;DHT22;9971;52.446;13.452;2023-11-22T12:21:49;8.20;99.90
19646;DHT22;9971;52.446;13.452;2023-11-22T12:26:51;8.50;99.90
19646;DHT22;9971;52.446;13.452;2023-11-22T12:31:55;8.60;99.90
19646;DHT22;9971;52.446;13.452;2023-11-22T12:36:58;8.40;99.50
19646;DHT22;9971;52.446;13.452;2023-11-22T12:42:01;8.10;99.90
19646;DHT22;9971;52.446;13.452;2023-11-22T12:47:07;8.30;99.40
19646;DHT22;9971;52.446;13.452;2023-11-22T12:52:16;8.30;99.60
19646;DHT22;9971;52.446;13.452;2023-11-22T12:57:24;8.20;99.20
19646;DHT22;9971;52.446;13.452;2023-11-22T13:02:34;7.90;96.30
19646;DHT22;9971;52.446;13.452;2023-11-22T13:07:37;7.60;96.20
19646;DHT22;9971;52.446;13.452;2023-11-22T13:12:47;7.40;96.80
19646;DHT22;9971;52.446;13.452;2023-11-22T13:17:58;7.40;98.40
19646;DHT22;9971;52.446;13.452;2023-11-22T13:23:06;7.30;98.30
19646;DHT22;9971;52.446;13.452;2023-11-22T13:28:14;7.30;98.50
19646;DHT22;9971;52.446;13.452;2023-11-22T13:38:52;6.90;98.40
19646;DHT22;9971;52.446;13.452;2023-11-22T13:43:54;6.80;97.90
19646;DHT22;9971;52.446;13.452;2023-11-22T13:48:57;6.70;99.10
19646;DHT22;9971;52.446;13.452;2023-11-22T13:54:04;6.60;97.80
19646;DHT22;9971;52.446;13.452;2023-11-22T13:59:09;6.50;97.80
19646;DHT22;9971;52.446;13.452;2023-11-22T14:04:15;6.40;99.40
19646;DHT22;9971;52.446;13.452;2023-11-22T14:09:17;6.40;99.90
19646;DHT22;9971;52.446;13.452;2023-11-22T14:36:05;6.00;99.90
19646;DHT22;9971;52.446;13.452;2023-11-22T14:57:14;5.60;99.90
19646;DHT22;9971;52.446;13.452;2023-11-22T15:29:12;5.20;99.90
19646;DHT22;9971;52.446;13.452;2023-11-22T15:34:19;5.20;99.90
19646;DHT22;9971;52.446;13.452;2023-11-22T15:39:30;5.10;99.90
19646;DHT22;9971;52.446;13.452;2023-11-22T15:44:48;5.10;99.90
19646;DHT22;9971;52.446;13.452;2023-11-22T15:49:57;5.10;99.90
19646;DHT22;9971;52.446;13.452;2023-11-22T15:55:01;5.10;99.90
19646;DHT22;9971;52.446;13.452;2023-11-22T16:00:06;5.10;99.90
19646;DHT22;9971;52.446;13.452;2023-11-22T16:05:13;5.10;99.90
19646;DHT22;9971;52.446;13.452;2023-11-22T16:10:23;5.00;99.90
19646;DHT22;9971;52.446;13.452;2023-11-22T16:15:29;4.90;99.90
19646;DHT22;9971;52.446;13.452;2023-11-22T16:20:35;4.90;99.90
19646;DHT22;9971;52.446;13.452;2023-11-22T16:47:18;4.80;99.90
19646;DHT22;9971;52.446;13.452;2023-11-22T16:57:49;4.80;99.90
19646;DHT22;9971;52.446;13.452;2023-11-22T17:03:04;4.80;99.90
19646;DHT22;9971;52.446;13.452;2023-11-22T17:08:14;4.90;99.90
19646;DHT22;9971;52.446;13.452;2023-11-22T17:13:25;4.90;99.90
19646;DHT22;9971;52.446;13.452;2023-11-22T17:18:35;4.80;99.90
19646;DHT22;9971;52.446;13.452;2023-11-22T17:23:37;4.80;99.90
19646;DHT22;9971;52.446;13.452;2023-11-22T17:28:51;4.80;99.90
19646;DHT22;9971;52.446;13.452;2023-11-22T17:34:12;4.80;99.90
19646;DHT22;9971;52.446;13.452;2023-11-22T17:39:43;4.80;99.90
19646;DHT22;9971;52.446;13.452;2023-11-22T18:22:43;4.60;99.90
19646;DHT22;9971;52.446;13.452;2023-11-22T18:27:48;4.60;99.90
19646;DHT22;9971;52.446;13.452;2023-11-22T18:32:51;4.80;99.90
19646;DHT22;9971;52.446;13.452;2023-11-22T18:37:55;5.60;99.90
19646;DHT22;9971;52.446;13.452;2023-11-22T18:42:58;6.60;99.90
19646;DHT22;9971;52.446;13.452;2023-11-22T18:48:01;7.60;99.90
19646;DHT22;9971;52.446;13.452;2023-11-22T18:53:07;8.50;99.90
19646;DHT22;9971;52.446;13.452;2023-11-22T18:58:11;9.10;99.90
19646;DHT22;9971;52.446;13.452;2023-11-22T19:03:20;9.80;99.90
19646;DHT22;9971;52.446;13.452;2023-11-22T19:08:24;10.30;99.90
19646;DHT22;9971;52.446;13.452;2023-11-22T19:13:26;10.80;99.90
19646;DHT22;9971;52.446;13.452;2023-11-22T19:18:29;11.30;99.90
19646;DHT22;9971;52.446;13.452;2023-11-22T19:23:31;11.70;99.90
19646;DHT22;9971;52.446;13.452;2023-11-22T19:28:34;12.10;99.90
19646;DHT22;9971;52.446;13.452;2023-11-22T19:33:38;12.50;99.90
19646;DHT22;9971;52.446;13.452;2023-11-22T19:38:42;12.80;99.90
19646;DHT22;9971;52.446;13.452;2023-11-22T19:43:48;13.20;98.70
19646;DHT22;9971;52.446;13.452;2023-11-22T19:48:55;13.50;97.90
19646;DHT22;9971;52.446;13.452;2023-11-22T19:54:03;13.80;94.50
19646;DHT22;9971;52.446;13.452;2023-11-22T19:59:12;14.00;94.40
19646;DHT22;9971;52.446;13.452;2023-11-22T20:04:26;14.30;91.20
19646;DHT22;9971;52.446;13.452;2023-11-22T20:09:38;14.50;89.80
19646;DHT22;9971;52.446;13.452;2023-11-22T20:14:44;14.70;81.70
19646;DHT22;9971;52.446;13.452;2023-11-22T20:19:55;14.90;80.80
19646;DHT22;9971;52.446;13.452;2023-11-22T20:25:14;15.10;78.10
19646;DHT22;9971;52.446;13.452;2023-11-22T20:30:55;15.20;76.70
19646;DHT22;9971;52.446;13.452;2023-11-22T20:35:56;15.40;77.30
19646;DHT22;9971;52.446;13.452;2023-11-22T20:41:01;15.50;75.40
19646;DHT22;9971;52.446;13.452;2023-11-22T20:46:11;15.70;74.50
19646;DHT22;9971;52.446;13.452;2023-11-22T20:51:17;15.80;70.40
19646;DHT22;9971;52.446;13.452;2023-11-22T20:56:27;15.80;70.30
19646;DHT22;9971;52.446;13.452;2023-11-22T21:01:35;15.90;70.40
19646;DHT22;9971;52.446;13.452;2023-11-22T21:06:44;15.90;68.80
19646;DHT22;9971;52.446;13.452;2023-11-22T21:11:53;15.90;69.40
19646;DHT22;9971;52.446;13.452;2023-11-22T21:17:02;16.00;68.20
19646;DHT22;9971;52.446;13.452;2023-11-22T21:22:11;16.00;66.70
19646;DHT22;9971;52.446;13.452;2023-11-22T21:27:21;16.00;68.30
19646;DHT22;9971;52.446;13.452;2023-11-22T21:32:34;16.00;68.10
19646;DHT22;9971;52.446;13.452;2023-11-22T21:37:46;16.10;68.40
19646;DHT22;9971;52.446;13.452;2023-11-22T21:42:56;16.10;65.00
19646;DHT22;9971;52.446;13.452;2023-11-22T21:48:06;16.00;65.90
19646;DHT22;9971;52.446;13.452;2023-11-22T21:53:10;16.00;65.80
19646;DHT22;9971;52.446;13.452;2023-11-22T21:58:22;16.00;67.80
19646;DHT22;9971;52.446;13.452;2023-11-22T22:03:26;16.10;65.70
19646;DHT22;9971;52.446;13.452;2023-11-22T22:08:30;16.00;65.20
19646;DHT22;9971;52.446;13.452;2023-11-22T22:13:40;16.10;65.90
19646;DHT22;9971;52.446;13.452;2023-11-22T22:35:19;16.30;63.80
19646;DHT22;9971;52.446;13.452;2023-11-22T23:02:42;16.50;61.90
19646;DHT22;9971;52.446;13.452;2023-11-22T23:07:42;16.50;62.00
19646;DHT22;9971;52.446;13.452;2023-11-22T23:12:51;16.50;61.00
19646;DHT22;9971;52.446;13.452;2023-11-22T23:18:03;16.50;61.00
19646;DHT22;9971;52.446;13.452;2023-11-22T23:23:10;16.40;61.40
19646;DHT22;9971;52.446;13.452;2023-11-22T23:44:23;16.50;61.30
19646;DHT22;9971;52.446;13.452;2023-11-22T23:49:33;16.50;60.20
